DLH118 EDDK-EDDM
Flight info
| Callsign | DLH118 |
|---|---|
| Flight time | 0h 43m |
| Altitude | 31000 |
| Route | KUMIK8F/13L KUMIK Y854 BOMBI T104 ROKIL ROKIL1A |
| Aircraft | A320/M-SDE3FGHIRWY/LB1 |
Departure
| Time | 2026-05-04 14:51 |
|---|---|
| Airport | Cologne Bonn Airport (EDDK) |
Arrival
| Time | 2026-05-04 15:34 |
|---|---|
| Airport | Munich Airport (EDDM) |
| Time | Latitude | Longitude | Altitude | Speed | Heading |
|---|---|---|---|---|---|
| 2026-05-04 14:47 | 50.87992 | 7.12735 | 239 ft | 0 kts | 75° |
| 2026-05-04 14:49 | 50.87998 | 7.12771 | 237 ft | 7 kts | 76° |
| 2026-05-04 14:49 | 50.88007 | 7.12885 | 239 ft | 15 kts | 88° |
| 2026-05-04 14:49 | 50.87958 | 7.13044 | 239 ft | 16 kts | 131° |
| 2026-05-04 14:50 | 50.87818 | 7.13249 | 239 ft | 57 kts | 139° |
| 2026-05-04 14:50 | 50.87340 | 7.13919 | 242 ft | 123 kts | 137° |
| 2026-05-04 14:50 | 50.86568 | 7.14994 | 297 ft | 169 kts | 139° |
| 2026-05-04 14:50 | 50.85639 | 7.16246 | 822 ft | 177 kts | 140° |
| 2026-05-04 14:51 | 50.84731 | 7.17537 | 1614 ft | 177 kts | 141° |
| 2026-05-04 14:51 | 50.83762 | 7.18915 | 2032 ft | 198 kts | 141° |
| 2026-05-04 14:51 | 50.82681 | 7.20448 | 2399 ft | 220 kts | 140° |
| 2026-05-04 14:51 | 50.81758 | 7.22451 | 3058 ft | 232 kts | 119° |
| 2026-05-04 14:52 | 50.81259 | 7.24897 | 3826 ft | 243 kts | 100° |
| 2026-05-04 14:52 | 50.81051 | 7.27675 | 4277 ft | 264 kts | 99° |
| 2026-05-04 14:52 | 50.80830 | 7.30608 | 5062 ft | 271 kts | 99° |
| 2026-05-04 14:52 | 50.80598 | 7.33587 | 5955 ft | 274 kts | 100° |
| 2026-05-04 14:53 | 50.80357 | 7.36551 | 6856 ft | 277 kts | 101° |
| 2026-05-04 14:53 | 50.80100 | 7.39599 | 7716 ft | 281 kts | 101° |
| 2026-05-04 14:53 | 50.79833 | 7.42683 | 8579 ft | 285 kts | 101° |
| 2026-05-04 14:53 | 50.79555 | 7.45833 | 9456 ft | 290 kts | 101° |
| 2026-05-04 14:54 | 50.79273 | 7.49029 | 10218 ft | 299 kts | 101° |
| 2026-05-04 14:54 | 50.78970 | 7.52406 | 10486 ft | 323 kts | 101° |
| 2026-05-04 14:54 | 50.78646 | 7.56002 | 10985 ft | 335 kts | 101° |
| 2026-05-04 14:54 | 50.78477 | 7.59701 | 11682 ft | 343 kts | 90° |
| 2026-05-04 14:55 | 50.78792 | 7.63467 | 12442 ft | 348 kts | 82° |
| 2026-05-04 14:55 | 50.79229 | 7.67252 | 13236 ft | 351 kts | 82° |
| 2026-05-04 14:55 | 50.79664 | 7.71065 | 13960 ft | 354 kts | 82° |
| 2026-05-04 14:55 | 50.80095 | 7.74898 | 14593 ft | 357 kts | 82° |
| 2026-05-04 14:56 | 50.80528 | 7.78792 | 15201 ft | 361 kts | 82° |
| 2026-05-04 14:56 | 50.80962 | 7.82717 | 15815 ft | 364 kts | 82° |
| 2026-05-04 14:56 | 50.81400 | 7.86677 | 16414 ft | 368 kts | 82° |
| 2026-05-04 14:56 | 50.81842 | 7.90684 | 17012 ft | 372 kts | 82° |
| 2026-05-04 14:57 | 50.82284 | 7.94694 | 17603 ft | 376 kts | 82° |
| 2026-05-04 14:57 | 50.82623 | 7.98793 | 18179 ft | 377 kts | 91° |
| 2026-05-04 14:57 | 50.82370 | 8.02909 | 18678 ft | 376 kts | 106° |
| 2026-05-04 14:57 | 50.81486 | 8.06791 | 19164 ft | 374 kts | 121° |
| 2026-05-04 14:58 | 50.80040 | 8.10193 | 19677 ft | 372 kts | 135° |
| 2026-05-04 14:58 | 50.78131 | 8.12922 | 20190 ft | 370 kts | 148° |
| 2026-05-04 14:58 | 50.75962 | 8.15131 | 20709 ft | 372 kts | 151° |
| 2026-05-04 14:58 | 50.73761 | 8.17264 | 21247 ft | 372 kts | 156° |
| 2026-05-04 14:59 | 50.71502 | 8.19239 | 21803 ft | 371 kts | 160° |
| 2026-05-04 15:00 | 50.60641 | 8.30268 | 23813 ft | 394 kts | 145° |
| 2026-05-04 15:00 | 50.58506 | 8.32993 | 24203 ft | 396 kts | 145° |
| 2026-05-04 15:01 | 50.54217 | 8.38549 | 24990 ft | 402 kts | 145° |
| 2026-05-04 15:01 | 50.52052 | 8.41350 | 25364 ft | 405 kts | 145° |
| 2026-05-04 15:01 | 50.49864 | 8.44163 | 25774 ft | 407 kts | 145° |
| 2026-05-04 15:01 | 50.47659 | 8.46988 | 26208 ft | 409 kts | 145° |
| 2026-05-04 15:02 | 50.45446 | 8.49817 | 26598 ft | 411 kts | 145° |
| 2026-05-04 15:02 | 50.43220 | 8.52654 | 26975 ft | 413 kts | 145° |
| 2026-05-04 15:02 | 50.40977 | 8.55508 | 27350 ft | 415 kts | 146° |
| 2026-05-04 15:02 | 50.38730 | 8.58366 | 27708 ft | 418 kts | 146° |
| 2026-05-04 15:03 | 50.36469 | 8.61239 | 28082 ft | 420 kts | 146° |
| 2026-05-04 15:03 | 50.34197 | 8.64123 | 28438 ft | 421 kts | 146° |
| 2026-05-04 15:03 | 50.31915 | 8.67016 | 28778 ft | 423 kts | 145° |
| 2026-05-04 15:03 | 50.29618 | 8.69922 | 29087 ft | 426 kts | 146° |
| 2026-05-04 15:04 | 50.27305 | 8.72844 | 29416 ft | 428 kts | 146° |
| 2026-05-04 15:04 | 50.24975 | 8.75785 | 29741 ft | 431 kts | 146° |
| 2026-05-04 15:04 | 50.22663 | 8.78699 | 30053 ft | 433 kts | 146° |
| 2026-05-04 15:04 | 50.20317 | 8.81656 | 30345 ft | 435 kts | 146° |
| 2026-05-04 15:05 | 50.17955 | 8.84628 | 30590 ft | 437 kts | 146° |
| 2026-05-04 15:05 | 50.15579 | 8.87608 | 30847 ft | 438 kts | 146° |
| 2026-05-04 15:05 | 50.13195 | 8.90589 | 30961 ft | 437 kts | 146° |
| 2026-05-04 15:05 | 50.10864 | 8.93512 | 30979 ft | 422 kts | 146° |
| 2026-05-04 15:06 | 50.06368 | 8.99154 | 30973 ft | 412 kts | 146° |
| 2026-05-04 15:07 | 49.99662 | 9.07497 | 30980 ft | 411 kts | 147° |
| 2026-05-04 15:07 | 49.95189 | 9.13042 | 30972 ft | 412 kts | 147° |
| 2026-05-04 15:08 | 49.90675 | 9.18621 | 30984 ft | 415 kts | 147° |
| 2026-05-04 15:08 | 49.86186 | 9.24181 | 30983 ft | 416 kts | 147° |
| 2026-05-04 15:09 | 49.81669 | 9.29766 | 30966 ft | 416 kts | 147° |
| 2026-05-04 15:09 | 49.77148 | 9.35322 | 30972 ft | 415 kts | 147° |
| 2026-05-04 15:10 | 49.70360 | 9.43634 | 30972 ft | 415 kts | 147° |
| 2026-05-04 15:11 | 49.63564 | 9.51923 | 30957 ft | 415 kts | 147° |
| 2026-05-04 15:11 | 49.59025 | 9.57458 | 30965 ft | 416 kts | 147° |
| 2026-05-04 15:12 | 49.54476 | 9.63000 | 30965 ft | 416 kts | 147° |
| 2026-05-04 15:12 | 49.49929 | 9.68504 | 30976 ft | 416 kts | 147° |
| 2026-05-04 15:13 | 49.45380 | 9.73998 | 30981 ft | 416 kts | 147° |
| 2026-05-04 15:13 | 49.40825 | 9.79492 | 30660 ft | 416 kts | 147° |
| 2026-05-04 15:13 | 49.38605 | 9.82261 | 30416 ft | 419 kts | 142° |
| 2026-05-04 15:14 | 49.36592 | 9.85497 | 29948 ft | 420 kts | 136° |
| 2026-05-04 15:14 | 49.34663 | 9.88847 | 29375 ft | 417 kts | 136° |
| 2026-05-04 15:14 | 49.32753 | 9.92162 | 28857 ft | 413 kts | 136° |
| 2026-05-04 15:14 | 49.30856 | 9.95442 | 28323 ft | 409 kts | 136° |
| 2026-05-04 15:15 | 49.28973 | 9.98686 | 27798 ft | 405 kts | 136° |
| 2026-05-04 15:15 | 49.27110 | 10.01885 | 27301 ft | 401 kts | 136° |
| 2026-05-04 15:15 | 49.25239 | 10.05090 | 26584 ft | 406 kts | 136° |
| 2026-05-04 15:16 | 49.21467 | 10.11524 | 25223 ft | 408 kts | 136° |
| 2026-05-04 15:16 | 49.19597 | 10.14723 | 25025 ft | 400 kts | 136° |
| 2026-05-04 15:16 | 49.15899 | 10.21039 | 24997 ft | 398 kts | 136° |
| 2026-05-04 15:17 | 49.14049 | 10.24186 | 24994 ft | 399 kts | 136° |
| 2026-05-04 15:17 | 49.10269 | 10.30396 | 24981 ft | 399 kts | 137° |
| 2026-05-04 15:17 | 49.08344 | 10.33472 | 24154 ft | 405 kts | 137° |
| 2026-05-04 15:18 | 49.06371 | 10.36601 | 23330 ft | 411 kts | 137° |
| 2026-05-04 15:18 | 49.04392 | 10.39740 | 22640 ft | 409 kts | 137° |
| 2026-05-04 15:18 | 49.02421 | 10.42879 | 21848 ft | 411 kts | 137° |
| 2026-05-04 15:19 | 48.98487 | 10.49156 | 20341 ft | 413 kts | 137° |
| 2026-05-04 15:19 | 48.96500 | 10.52329 | 19600 ft | 414 kts | 137° |
| 2026-05-04 15:19 | 48.92528 | 10.58667 | 18158 ft | 414 kts | 137° |
| 2026-05-04 15:20 | 48.90539 | 10.61830 | 17356 ft | 414 kts | 136° |
| 2026-05-04 15:20 | 48.88554 | 10.64985 | 16577 ft | 413 kts | 136° |
| 2026-05-04 15:20 | 48.86568 | 10.68135 | 15810 ft | 412 kts | 136° |
| 2026-05-04 15:20 | 48.84585 | 10.71272 | 15068 ft | 410 kts | 136° |
| 2026-05-04 15:21 | 48.82619 | 10.74377 | 14419 ft | 407 kts | 136° |
| 2026-05-04 15:21 | 48.80691 | 10.77430 | 14165 ft | 393 kts | 136° |
| 2026-05-04 15:21 | 48.77624 | 10.82271 | 13760 ft | 374 kts | 136° |
| 2026-05-04 15:22 | 48.75228 | 10.85872 | 13402 ft | 357 kts | 142° |
| 2026-05-04 15:22 | 48.73932 | 10.87448 | 13222 ft | 350 kts | 144° |
| 2026-05-04 15:22 | 48.70212 | 10.91820 | 12953 ft | 323 kts | 144° |
| 2026-05-04 15:23 | 48.68483 | 10.93859 | 12953 ft | 308 kts | 144° |
| 2026-05-04 15:23 | 48.66825 | 10.95835 | 12713 ft | 302 kts | 144° |
| 2026-05-04 15:23 | 48.65154 | 10.97829 | 12067 ft | 309 kts | 144° |
| 2026-05-04 15:23 | 48.63467 | 10.99842 | 11440 ft | 316 kts | 144° |
| 2026-05-04 15:24 | 48.59946 | 11.04040 | 10203 ft | 324 kts | 144° |
| 2026-05-04 15:24 | 48.56384 | 11.08261 | 8933 ft | 329 kts | 144° |
| 2026-05-04 15:25 | 48.54561 | 11.10370 | 8294 ft | 331 kts | 144° |
| 2026-05-04 15:25 | 48.52734 | 11.12452 | 7651 ft | 324 kts | 144° |
| 2026-05-04 15:25 | 48.50959 | 11.14448 | 7053 ft | 312 kts | 144° |
| 2026-05-04 15:26 | 48.47533 | 11.18230 | 5825 ft | 305 kts | 144° |
| 2026-05-04 15:26 | 48.45794 | 11.20107 | 5199 ft | 309 kts | 144° |
| 2026-05-04 15:26 | 48.42409 | 11.23731 | 4654 ft | 289 kts | 144° |
| 2026-05-04 15:27 | 48.40880 | 11.25602 | 4390 ft | 279 kts | 131° |
| 2026-05-04 15:27 | 48.39009 | 11.30459 | 4016 ft | 258 kts | 115° |
| 2026-05-04 15:28 | 48.37599 | 11.35053 | 4010 ft | 227 kts | 114° |
| 2026-05-04 15:28 | 48.36959 | 11.37140 | 4009 ft | 213 kts | 114° |
| 2026-05-04 15:28 | 48.35776 | 11.40999 | 4011 ft | 197 kts | 114° |
| 2026-05-04 15:29 | 48.35205 | 11.42861 | 4011 ft | 196 kts | 114° |
| 2026-05-04 15:30 | 48.34210 | 11.50587 | 4005 ft | 187 kts | 83° |
| 2026-05-04 15:30 | 48.34665 | 11.56226 | 4040 ft | 179 kts | 83° |
| 2026-05-04 15:31 | 48.34959 | 11.59947 | 3650 ft | 178 kts | 83° |
| 2026-05-04 15:31 | 48.35105 | 11.61788 | 3422 ft | 177 kts | 83° |
| 2026-05-04 15:32 | 48.35516 | 11.67015 | 2757 ft | 157 kts | 83° |
| 2026-05-04 15:32 | 48.35763 | 11.70177 | 2375 ft | 150 kts | 82° |
| 2026-05-04 15:33 | 48.36004 | 11.73266 | 1974 ft | 146 kts | 81° |
| 2026-05-04 15:34 | 48.36362 | 11.77690 | 1485 ft | 124 kts | 81° |
| 2026-05-04 15:34 | 48.36448 | 11.78764 | 1481 ft | 89 kts | 85° |
| 2026-05-04 15:34 | 48.36501 | 11.80013 | 1479 ft | 31 kts | 110° |
| 2026-05-04 15:35 | 48.36399 | 11.80369 | 1481 ft | 0 kts | 112° |
| 2026-05-04 15:36 | 48.36391 | 11.80396 | 1474 ft | 8 kts | 112° |
| 2026-05-04 15:36 | 48.36372 | 11.80466 | 1482 ft | 0 kts | 113° |
| 2026-05-04 15:36 | 48.36340 | 11.80513 | 1481 ft | 12 kts | 158° |
| 2026-05-04 15:37 | 48.36283 | 11.80458 | 1485 ft | 10 kts | 254° |
| 2026-05-04 15:37 | 48.36274 | 11.80335 | 1477 ft | 14 kts | 268° |
| 2026-05-04 15:37 | 48.36268 | 11.80178 | 1485 ft | 16 kts | 264° |
| 2026-05-04 15:37 | 48.36254 | 11.80006 | 1485 ft | 17 kts | 263° |
| 2026-05-04 15:38 | 48.36236 | 11.79874 | 1478 ft | 0 kts | 242° |
| 2026-05-04 15:38 | 48.36204 | 11.79840 | 1476 ft | 11 kts | 193° |
| 2026-05-04 15:38 | 48.36168 | 11.79839 | 1480 ft | 0 kts | 181° |
| 2026-05-04 15:40 | 48.36148 | 11.79861 | 1469 ft | 4 kts | 184° |
| 2026-05-04 15:40 | 48.36150 | 11.79848 | 1482 ft | 1 kts | 302° |
| 2026-05-04 15:40 | 48.36169 | 11.79846 | 1485 ft | 3 kts | 350° |
| 2026-05-04 15:40 | 48.36218 | 11.79828 | 1484 ft | 10 kts | 327° |
| 2026-05-04 15:41 | 48.36233 | 11.79723 | 1482 ft | 11 kts | 265° |
| 2026-05-04 15:41 | 48.36223 | 11.79622 | 1485 ft | 9 kts | 261° |
| 2026-05-04 15:41 | 48.36199 | 11.79497 | 1478 ft | 18 kts | 226° |
| 2026-05-04 15:41 | 48.36083 | 11.79479 | 1482 ft | 17 kts | 173° |
| 2026-05-04 15:42 | 48.35984 | 11.79500 | 1482 ft | 0 kts | 172° |
| 2026-05-04 15:42 | 48.35983 | 11.79500 | 1482 ft | 0 kts | 172° |
| 2026-05-04 15:44 | 48.35951 | 11.79507 | 1474 ft | 0 kts | 172° |
| 2026-05-04 15:44 | 48.35939 | 11.79509 | 1479 ft | 9 kts | 173° |
| 2026-05-04 15:44 | 48.35866 | 11.79520 | 1485 ft | 10 kts | 174° |
| 2026-05-04 15:45 | 48.35802 | 11.79529 | 1485 ft | 9 kts | 174° |
| 2026-05-04 15:45 | 48.35747 | 11.79537 | 1484 ft | 7 kts | 174° |
| 2026-05-04 15:46 | 48.35644 | 11.79556 | 1480 ft | 0 kts | 172° |
| 2026-05-04 15:46 | 48.35622 | 11.79561 | 1481 ft | 5 kts | 168° |
| 2026-05-04 15:46 | 48.35612 | 11.79592 | 1485 ft | 4 kts | 100° |
| 2026-05-04 15:47 | 48.35615 | 11.79659 | 1485 ft | 7 kts | 83° |
| 2026-05-04 15:47 | 48.35619 | 11.79709 | 1475 ft | 2 kts | 80° |
| 2026-05-04 15:47 | 48.35620 | 11.79719 | 1478 ft | 0 kts | 81° |